sensor_id;sensor_type;location;lat;lon;timestamp;pressure;altitude;pressure_sealevel;temperature;humidity
66742;BME280;53654;54.152;19.432;2024-03-08T00:00:21;102633.25;;;0.71;70.12
66742;BME280;53654;54.152;19.432;2024-03-08T00:03:09;102630.45;;;0.67;70.35
66742;BME280;53654;54.152;19.432;2024-03-08T00:05:38;102632.42;;;0.66;70.39
66742;BME280;53654;54.152;19.432;2024-03-08T00:08:07;102633.39;;;0.65;70.50
66742;BME280;53654;54.152;19.432;2024-03-08T00:10:38;102631.23;;;0.63;70.49
66742;BME280;53654;54.152;19.432;2024-03-08T00:13:07;102627.73;;;0.62;70.69
66742;BME280;53654;54.152;19.432;2024-03-08T00:15:35;102625.52;;;0.63;70.85
66742;BME280;53654;54.152;19.432;2024-03-08T00:18:04;102625.38;;;0.63;70.89
66742;BME280;53654;54.152;19.432;2024-03-08T00:20:32;102624.40;;;0.61;70.94
66742;BME280;53654;54.152;19.432;2024-03-08T00:23:01;102617.98;;;0.60;71.06
66742;BME280;53654;54.152;19.432;2024-03-08T00:25:30;102619.08;;;0.59;71.05
66742;BME280;53654;54.152;19.432;2024-03-08T00:27:59;102619.46;;;0.59;71.26
66742;BME280;53654;54.152;19.432;2024-03-08T00:30:27;102617.19;;;0.58;71.12
66742;BME280;53654;54.152;19.432;2024-03-08T00:32:55;102615.50;;;0.59;71.30
66742;BME280;53654;54.152;19.432;2024-03-08T00:35:24;102616.34;;;0.61;71.45
66742;BME280;53654;54.152;19.432;2024-03-08T00:37:52;102611.34;;;0.64;71.43
66742;BME280;53654;54.152;19.432;2024-03-08T00:40:20;102609.17;;;0.65;71.39
66742;BME280;53654;54.152;19.432;2024-03-08T00:42:48;102610.98;;;0.67;71.46
66742;BME280;53654;54.152;19.432;2024-03-08T00:45:17;102609.45;;;0.67;71.47
66742;BME280;53654;54.152;19.432;2024-03-08T00:47:45;102608.59;;;0.64;71.16
66742;BME280;53654;54.152;19.432;2024-03-08T00:50:13;102610.82;;;0.58;71.04
66742;BME280;53654;54.152;19.432;2024-03-08T00:52:42;102611.46;;;0.55;71.24
66742;BME280;53654;54.152;19.432;2024-03-08T00:55:10;102606.44;;;0.49;71.27
66742;BME280;53654;54.152;19.432;2024-03-08T00:57:39;102599.36;;;0.43;71.76
66742;BME280;53654;54.152;19.432;2024-03-08T01:00:08;102600.89;;;0.40;72.08
66742;BME280;53654;54.152;19.432;2024-03-08T01:02:40;102597.69;;;0.38;72.33
66742;BME280;53654;54.152;19.432;2024-03-08T01:05:09;102595.89;;;0.39;72.28
66742;BME280;53654;54.152;19.432;2024-03-08T01:07:37;102590.41;;;0.40;72.46
66742;BME280;53654;54.152;19.432;2024-03-08T01:10:05;102588.38;;;0.40;72.43
66742;BME280;53654;54.152;19.432;2024-03-08T01:12:40;102590.94;;;0.40;72.43
66742;BME280;53654;54.152;19.432;2024-03-08T01:15:10;102585.58;;;0.39;72.31
66742;BME280;53654;54.152;19.432;2024-03-08T01:17:38;102580.96;;;0.39;72.32
66742;BME280;53654;54.152;19.432;2024-03-08T01:20:08;102582.33;;;0.37;72.28
66742;BME280;53654;54.152;19.432;2024-03-08T01:22:40;102578.48;;;0.33;72.39
66742;BME280;53654;54.152;19.432;2024-03-08T01:25:08;102577.81;;;0.30;72.37
66742;BME280;53654;54.152;19.432;2024-03-08T01:27:36;102576.21;;;0.29;72.30
66742;BME280;53654;54.152;19.432;2024-03-08T01:30:05;102576.71;;;0.29;72.29
66742;BME280;53654;54.152;19.432;2024-03-08T01:32:34;102572.70;;;0.28;72.29
66742;BME280;53654;54.152;19.432;2024-03-08T01:35:02;102571.91;;;0.26;72.10
66742;BME280;53654;54.152;19.432;2024-03-08T01:37:31;102569.48;;;0.23;71.87
66742;BME280;53654;54.152;19.432;2024-03-08T01:39:59;102569.29;;;0.20;72.01
66742;BME280;53654;54.152;19.432;2024-03-08T01:42:28;102565.59;;;0.18;71.80
66742;BME280;53654;54.152;19.432;2024-03-08T01:44:56;102558.90;;;0.16;71.76
66742;BME280;53654;54.152;19.432;2024-03-08T01:47:25;102561.92;;;0.15;71.89
66742;BME280;53654;54.152;19.432;2024-03-08T01:49:53;102558.25;;;0.14;72.08
66742;BME280;53654;54.152;19.432;2024-03-08T01:52:22;102555.76;;;0.12;72.24
66742;BME280;53654;54.152;19.432;2024-03-08T01:54:52;102555.23;;;0.12;72.34
66742;BME280;53654;54.152;19.432;2024-03-08T01:57:21;102550.53;;;0.11;72.34
66742;BME280;53654;54.152;19.432;2024-03-08T01:59:49;102547.46;;;0.11;72.24
66742;BME280;53654;54.152;19.432;2024-03-08T02:02:18;102547.14;;;0.12;72.18
66742;BME280;53654;54.152;19.432;2024-03-08T02:04:48;102543.05;;;0.09;72.15
66742;BME280;53654;54.152;19.432;2024-03-08T02:07:16;102542.88;;;0.07;72.13
66742;BME280;53654;54.152;19.432;2024-03-08T02:09:44;102546.13;;;0.06;72.11
66742;BME280;53654;54.152;19.432;2024-03-08T02:12:13;102548.03;;;0.04;72.11
66742;BME280;53654;54.152;19.432;2024-03-08T02:14:42;102548.60;;;-0.01;72.03
66742;BME280;53654;54.152;19.432;2024-03-08T02:17:12;102544.98;;;-0.03;72.14
66742;BME280;53654;54.152;19.432;2024-03-08T02:19:40;102536.71;;;-0.06;71.92
66742;BME280;53654;54.152;19.432;2024-03-08T02:22:09;102541.55;;;-0.06;71.92
66742;BME280;53654;54.152;19.432;2024-03-08T02:24:38;102542.10;;;-0.08;71.93
66742;BME280;53654;54.152;19.432;2024-03-08T02:27:06;102542.35;;;-0.09;71.96
66742;BME280;53654;54.152;19.432;2024-03-08T02:29:36;102542.37;;;-0.14;72.03
66742;BME280;53654;54.152;19.432;2024-03-08T02:32:04;102541.23;;;-0.19;72.26
66742;BME280;53654;54.152;19.432;2024-03-08T02:34:32;102541.27;;;-0.21;72.47
66742;BME280;53654;54.152;19.432;2024-03-08T02:37:01;102541.83;;;-0.23;72.45
66742;BME280;53654;54.152;19.432;2024-03-08T02:39:29;102544.32;;;-0.24;72.54
66742;BME280;53654;54.152;19.432;2024-03-08T02:41:57;102546.34;;;-0.25;72.50
66742;BME280;53654;54.152;19.432;2024-03-08T02:44:26;102536.86;;;-0.25;72.70
66742;BME280;53654;54.152;19.432;2024-03-08T02:46:54;102537.86;;;-0.26;72.60
66742;BME280;53654;54.152;19.432;2024-03-08T02:49:23;102533.30;;;-0.27;72.56
66742;BME280;53654;54.152;19.432;2024-03-08T02:51:51;102532.65;;;-0.29;72.53
66742;BME280;53654;54.152;19.432;2024-03-08T02:54:20;102533.59;;;-0.32;72.56
66742;BME280;53654;54.152;19.432;2024-03-08T02:56:48;102532.14;;;-0.33;72.53
66742;BME280;53654;54.152;19.432;2024-03-08T02:59:19;102529.92;;;-0.35;72.62
66742;BME280;53654;54.152;19.432;2024-03-08T03:01:47;102526.17;;;-0.37;72.63
66742;BME280;53654;54.152;19.432;2024-03-08T03:04:15;102521.77;;;-0.39;72.69
66742;BME280;53654;54.152;19.432;2024-03-08T03:06:43;102519.80;;;-0.41;72.69
66742;BME280;53654;54.152;19.432;2024-03-08T03:09:11;102518.85;;;-0.42;72.69
66742;BME280;53654;54.152;19.432;2024-03-08T03:11:40;102520.92;;;-0.44;72.64
66742;BME280;53654;54.152;19.432;2024-03-08T03:14:08;102516.88;;;-0.46;72.78
66742;BME280;53654;54.152;19.432;2024-03-08T03:16:37;102513.63;;;-0.48;72.84
66742;BME280;53654;54.152;19.432;2024-03-08T03:19:05;102514.20;;;-0.50;72.90
66742;BME280;53654;54.152;19.432;2024-03-08T03:21:34;102511.73;;;-0.51;72.80
66742;BME280;53654;54.152;19.432;2024-03-08T03:24:04;102512.33;;;-0.53;72.88
66742;BME280;53654;54.152;19.432;2024-03-08T03:26:38;102512.72;;;-0.57;72.84
66742;BME280;53654;54.152;19.432;2024-03-08T03:29:07;102509.44;;;-0.60;73.10
66742;BME280;53654;54.152;19.432;2024-03-08T03:31:36;102508.51;;;-0.61;73.33
66742;BME280;53654;54.152;19.432;2024-03-08T03:34:04;102511.00;;;-0.62;73.46
66742;BME280;53654;54.152;19.432;2024-03-08T03:36:36;102504.81;;;-0.63;73.47
66742;BME280;53654;54.152;19.432;2024-03-08T03:39:06;102503.55;;;-0.63;73.41
66742;BME280;53654;54.152;19.432;2024-03-08T03:41:44;102502.54;;;-0.66;73.47
66742;BME280;53654;54.152;19.432;2024-03-08T03:44:14;102506.27;;;-0.67;73.58
66742;BME280;53654;54.152;19.432;2024-03-08T03:46:42;102504.11;;;-0.66;73.66
66742;BME280;53654;54.152;19.432;2024-03-08T03:49:13;102506.40;;;-0.67;73.61
66742;BME280;53654;54.152;19.432;2024-03-08T03:51:42;102505.48;;;-0.68;73.68
66742;BME280;53654;54.152;19.432;2024-03-08T03:54:10;102503.90;;;-0.69;73.82
66742;BME280;53654;54.152;19.432;2024-03-08T03:56:39;102504.69;;;-0.70;73.85
66742;BME280;53654;54.152;19.432;2024-03-08T03:59:10;102505.37;;;-0.73;73.71
66742;BME280;53654;54.152;19.432;2024-03-08T04:01:42;102501.21;;;-0.76;73.55
66742;BME280;53654;54.152;19.432;2024-03-08T04:04:11;102497.96;;;-0.78;73.52
66742;BME280;53654;54.152;19.432;2024-03-08T04:06:40;102496.42;;;-0.81;73.62
66742;BME280;53654;54.152;19.432;2024-03-08T04:09:08;102497.80;;;-0.81;73.56
66742;BME280;53654;54.152;19.432;2024-03-08T04:11:38;102502.09;;;-0.83;73.45
66742;BME280;53654;54.152;19.432;2024-03-08T04:14:06;102500.67;;;-0.87;73.36
66742;BME280;53654;54.152;19.432;2024-03-08T04:16:34;102497.02;;;-0.90;73.72
66742;BME280;53654;54.152;19.432;2024-03-08T04:19:02;102493.27;;;-0.89;73.68
66742;BME280;53654;54.152;19.432;2024-03-08T04:21:32;102494.62;;;-0.90;73.68
66742;BME280;53654;54.152;19.432;2024-03-08T04:24:00;102491.85;;;-0.90;73.76
66742;BME280;53654;54.152;19.432;2024-03-08T04:26:29;102493.52;;;-0.88;73.67
66742;BME280;53654;54.152;19.432;2024-03-08T04:28:57;102489.84;;;-0.87;73.63
66742;BME280;53654;54.152;19.432;2024-03-08T04:31:25;102490.05;;;-0.87;73.32
66742;BME280;53654;54.152;19.432;2024-03-08T04:33:54;102491.31;;;-0.88;72.90
66742;BME280;53654;54.152;19.432;2024-03-08T04:36:23;102488.52;;;-0.89;72.83
66742;BME280;53654;54.152;19.432;2024-03-08T04:38:52;102491.06;;;-0.89;72.82
66742;BME280;53654;54.152;19.432;2024-03-08T04:41:20;102486.73;;;-0.90;72.85
66742;BME280;53654;54.152;19.432;2024-03-08T04:43:51;102485.73;;;-0.92;72.84
66742;BME280;53654;54.152;19.432;2024-03-08T04:46:20;102486.52;;;-0.91;73.07
66742;BME280;53654;54.152;19.432;2024-03-08T04:48:48;102487.59;;;-0.90;73.31
66742;BME280;53654;54.152;19.432;2024-03-08T04:51:16;102487.03;;;-0.91;73.30
66742;BME280;53654;54.152;19.432;2024-03-08T04:53:44;102486.38;;;-0.90;73.63
66742;BME280;53654;54.152;19.432;2024-03-08T04:56:13;102485.11;;;-0.89;73.71
66742;BME280;53654;54.152;19.432;2024-03-08T04:58:41;102488.06;;;-0.88;73.71
66742;BME280;53654;54.152;19.432;2024-03-08T05:01:09;102486.35;;;-0.88;73.92
66742;BME280;53654;54.152;19.432;2024-03-08T05:03:38;102479.89;;;-0.87;74.06
66742;BME280;53654;54.152;19.432;2024-03-08T05:06:07;102481.64;;;-0.87;74.13
66742;BME280;53654;54.152;19.432;2024-03-08T05:08:36;102480.51;;;-0.86;74.18
66742;BME280;53654;54.152;19.432;2024-03-08T05:11:04;102482.24;;;-0.85;74.26
66742;BME280;53654;54.152;19.432;2024-03-08T05:13:35;102486.59;;;-0.87;73.99
66742;BME280;53654;54.152;19.432;2024-03-08T05:16:04;102484.48;;;-0.90;74.13
66742;BME280;53654;54.152;19.432;2024-03-08T05:18:32;102483.52;;;-0.95;74.13
66742;BME280;53654;54.152;19.432;2024-03-08T05:21:00;102483.64;;;-0.99;74.36
66742;BME280;53654;54.152;19.432;2024-03-08T05:23:32;102481.06;;;-1.01;74.39
66742;BME280;53654;54.152;19.432;2024-03-08T05:26:00;102479.60;;;-1.03;74.58
66742;BME280;53654;54.152;19.432;2024-03-08T05:28:28;102481.79;;;-1.03;74.94
66742;BME280;53654;54.152;19.432;2024-03-08T05:30:57;102480.45;;;-1.05;75.08
66742;BME280;53654;54.152;19.432;2024-03-08T05:33:25;102485.56;;;-1.08;75.59
66742;BME280;53654;54.152;19.432;2024-03-08T05:35:53;102482.27;;;-1.11;76.05
66742;BME280;53654;54.152;19.432;2024-03-08T05:38:22;102486.24;;;-1.16;76.41
66742;BME280;53654;54.152;19.432;2024-03-08T05:40:50;102484.54;;;-1.21;76.89
66742;BME280;53654;54.152;19.432;2024-03-08T05:43:19;102482.91;;;-1.22;77.64
66742;BME280;53654;54.152;19.432;2024-03-08T05:45:47;102481.91;;;-1.19;78.29
66742;BME280;53654;54.152;19.432;2024-03-08T05:48:16;102485.47;;;-1.15;78.87
66742;BME280;53654;54.152;19.432;2024-03-08T05:50:47;102486.21;;;-1.09;79.32
66742;BME280;53654;54.152;19.432;2024-03-08T05:53:15;102481.91;;;-1.01;79.79
66742;BME280;53654;54.152;19.432;2024-03-08T05:55:43;102482.04;;;-0.94;80.01
66742;BME280;53654;54.152;19.432;2024-03-08T05:58:11;102482.34;;;-0.86;80.38
66742;BME280;53654;54.152;19.432;2024-03-08T06:00:39;102483.55;;;-0.78;80.63
66742;BME280;53654;54.152;19.432;2024-03-08T06:03:08;102482.57;;;-0.73;80.89
66742;BME280;53654;54.152;19.432;2024-03-08T06:05:36;102490.43;;;-0.65;80.93
66742;BME280;53654;54.152;19.432;2024-03-08T06:08:05;102487.09;;;-0.61;80.86
66742;BME280;53654;54.152;19.432;2024-03-08T06:10:35;102483.97;;;-0.62;80.78
66742;BME280;53654;54.152;19.432;2024-03-08T06:13:03;102481.73;;;-0.62;80.98
66742;BME280;53654;54.152;19.432;2024-03-08T06:15:32;102483.02;;;-0.58;81.41
66742;BME280;53654;54.152;19.432;2024-03-08T06:18:00;102481.79;;;-0.53;81.75
66742;BME280;53654;54.152;19.432;2024-03-08T06:20:28;102482.20;;;-0.47;81.82
66742;BME280;53654;54.152;19.432;2024-03-08T06:22:56;102481.53;;;-0.41;82.06
66742;BME280;53654;54.152;19.432;2024-03-08T06:25:24;102485.75;;;-0.40;82.01
66742;BME280;53654;54.152;19.432;2024-03-08T06:27:53;102485.05;;;-0.42;81.81
66742;BME280;53654;54.152;19.432;2024-03-08T06:30:21;102486.95;;;-0.42;81.95
66742;BME280;53654;54.152;19.432;2024-03-08T06:32:50;102485.31;;;-0.41;81.71
66742;BME280;53654;54.152;19.432;2024-03-08T06:35:20;102488.70;;;-0.39;82.02
66742;BME280;53654;54.152;19.432;2024-03-08T06:37:48;102491.27;;;-0.34;82.28
66742;BME280;53654;54.152;19.432;2024-03-08T06:40:16;102487.26;;;-0.29;82.29
66742;BME280;53654;54.152;19.432;2024-03-08T06:42:44;102486.50;;;-0.24;82.41
66742;BME280;53654;54.152;19.432;2024-03-08T06:45:13;102487.36;;;-0.22;82.09
66742;BME280;53654;54.152;19.432;2024-03-08T06:47:47;102486.09;;;-0.17;82.24
66742;BME280;53654;54.152;19.432;2024-03-08T06:50:16;102484.70;;;-0.15;82.22
66742;BME280;53654;54.152;19.432;2024-03-08T06:52:44;102484.98;;;-0.13;81.95
66742;BME280;53654;54.152;19.432;2024-03-08T06:55:14;102485.05;;;-0.07;82.01
66742;BME280;53654;54.152;19.432;2024-03-08T06:57:42;102487.88;;;-0.00;82.06
66742;BME280;53654;54.152;19.432;2024-03-08T07:00:11;102485.88;;;0.06;81.75
66742;BME280;53654;54.152;19.432;2024-03-08T07:02:41;102487.23;;;0.14;81.93
66742;BME280;53654;54.152;19.432;2024-03-08T07:05:10;102485.08;;;0.18;81.45
66742;BME280;53654;54.152;19.432;2024-03-08T07:07:38;102482.45;;;0.23;81.33
66742;BME280;53654;54.152;19.432;2024-03-08T07:10:09;102482.26;;;0.28;81.15
66742;BME280;53654;54.152;19.432;2024-03-08T07:12:39;102479.81;;;0.30;80.83
66742;BME280;53654;54.152;19.432;2024-03-08T07:15:07;102481.42;;;0.31;80.81
66742;BME280;53654;54.152;19.432;2024-03-08T07:17:36;102472.23;;;0.36;81.07
66742;BME280;53654;54.152;19.432;2024-03-08T07:20:05;102476.86;;;0.41;81.11
66742;BME280;53654;54.152;19.432;2024-03-08T07:22:39;102480.02;;;0.45;81.21
66742;BME280;53654;54.152;19.432;2024-03-08T07:25:08;102479.44;;;0.50;81.24
66742;BME280;53654;54.152;19.432;2024-03-08T07:27:48;102476.20;;;0.56;81.42
66742;BME280;53654;54.152;19.432;2024-03-08T07:30:17;102479.54;;;0.63;81.64
66742;BME280;53654;54.152;19.432;2024-03-08T07:33:06;102483.92;;;0.70;81.79
66742;BME280;53654;54.152;19.432;2024-03-08T07:35:35;102485.03;;;0.77;81.77
66742;BME280;53654;54.152;19.432;2024-03-08T07:38:08;102482.95;;;0.82;81.46
66742;BME280;53654;54.152;19.432;2024-03-08T07:40:41;102483.86;;;0.84;80.99
66742;BME280;53654;54.152;19.432;2024-03-08T07:43:13;102480.96;;;0.87;81.10
66742;BME280;53654;54.152;19.432;2024-03-08T07:45:41;102479.85;;;0.94;81.57
66742;BME280;53654;54.152;19.432;2024-03-08T07:48:09;102479.02;;;1.01;81.46
66742;BME280;53654;54.152;19.432;2024-03-08T07:50:40;102479.19;;;1.07;81.67
66742;BME280;53654;54.152;19.432;2024-03-08T07:53:09;102476.91;;;1.12;81.65
66742;BME280;53654;54.152;19.432;2024-03-08T07:55:37;102478.39;;;1.20;81.81
66742;BME280;53654;54.152;19.432;2024-03-08T07:58:08;102475.31;;;1.23;81.48
66742;BME280;53654;54.152;19.432;2024-03-08T08:00:39;102477.54;;;1.23;81.30
66742;BME280;53654;54.152;19.432;2024-03-08T08:03:07;102475.33;;;1.26;81.66
66742;BME280;53654;54.152;19.432;2024-03-08T08:05:37;102478.16;;;1.31;81.86
66742;BME280;53654;54.152;19.432;2024-03-08T08:08:10;102478.84;;;1.37;81.90
66742;BME280;53654;54.152;19.432;2024-03-08T08:10:39;102476.18;;;1.45;82.05
66742;BME280;53654;54.152;19.432;2024-03-08T08:13:08;102475.23;;;1.55;81.95
66742;BME280;53654;54.152;19.432;2024-03-08T08:15:36;102474.61;;;1.63;81.58
66742;BME280;53654;54.152;19.432;2024-03-08T08:18:05;102474.63;;;1.66;81.11
66742;BME280;53654;54.152;19.432;2024-03-08T08:20:34;102474.07;;;1.72;81.30
66742;BME280;53654;54.152;19.432;2024-03-08T08:23:02;102470.41;;;1.80;81.30
66742;BME280;53654;54.152;19.432;2024-03-08T08:25:31;102470.33;;;1.91;81.44
66742;BME280;53654;54.152;19.432;2024-03-08T08:28:03;102467.96;;;1.99;81.11
66742;BME280;53654;54.152;19.432;2024-03-08T08:30:32;102467.55;;;2.07;81.16
66742;BME280;53654;54.152;19.432;2024-03-08T08:33:01;102462.86;;;2.15;81.13
66742;BME280;53654;54.152;19.432;2024-03-08T08:35:30;102460.69;;;2.27;80.97
66742;BME280;53654;54.152;19.432;2024-03-08T08:37:58;102455.94;;;2.35;80.77
66742;BME280;53654;54.152;19.432;2024-03-08T08:40:26;102458.71;;;2.42;80.50
66742;BME280;53654;54.152;19.432;2024-03-08T08:42:59;102453.83;;;2.47;80.02
66742;BME280;53654;54.152;19.432;2024-03-08T08:45:27;102452.59;;;2.53;79.93
66742;BME280;53654;54.152;19.432;2024-03-08T08:47:56;102451.64;;;2.58;79.77
66742;BME280;53654;54.152;19.432;2024-03-08T08:50:25;102450.58;;;2.65;79.90
66742;BME280;53654;54.152;19.432;2024-03-08T08:52:55;102448.82;;;2.74;80.35
66742;BME280;53654;54.152;19.432;2024-03-08T08:55:23;102449.98;;;2.86;80.34
66742;BME280;53654;54.152;19.432;2024-03-08T08:57:55;102449.27;;;2.97;80.11
66742;BME280;53654;54.152;19.432;2024-03-08T09:00:24;102449.15;;;3.05;79.43
66742;BME280;53654;54.152;19.432;2024-03-08T09:02:56;102446.52;;;3.14;79.56
66742;BME280;53654;54.152;19.432;2024-03-08T09:05:26;102444.14;;;3.22;79.14
66742;BME280;53654;54.152;19.432;2024-03-08T09:07:55;102441.58;;;3.30;78.89
66742;BME280;53654;54.152;19.432;2024-03-08T09:10:23;102436.90;;;3.37;78.76
66742;BME280;53654;54.152;19.432;2024-03-08T09:12:57;102435.36;;;3.44;78.82
66742;BME280;53654;54.152;19.432;2024-03-08T09:15:27;102433.78;;;3.51;78.76
66742;BME280;53654;54.152;19.432;2024-03-08T09:17:57;102431.69;;;3.58;78.34
66742;BME280;53654;54.152;19.432;2024-03-08T09:20:27;102431.20;;;3.66;78.00
66742;BME280;53654;54.152;19.432;2024-03-08T09:22:56;102427.85;;;3.75;77.37
66742;BME280;53654;54.152;19.432;2024-03-08T09:25:24;102423.52;;;3.86;76.85
66742;BME280;53654;54.152;19.432;2024-03-08T09:27:54;102422.66;;;3.98;76.43
66742;BME280;53654;54.152;19.432;2024-03-08T09:30:22;102419.38;;;4.05;76.37
66742;BME280;53654;54.152;19.432;2024-03-08T09:32:52;102418.59;;;4.11;76.24
66742;BME280;53654;54.152;19.432;2024-03-08T09:35:22;102417.84;;;4.17;76.16
66742;BME280;53654;54.152;19.432;2024-03-08T09:37:51;102414.61;;;4.27;76.14
66742;BME280;53654;54.152;19.432;2024-03-08T09:40:19;102409.58;;;4.38;75.37
66742;BME280;53654;54.152;19.432;2024-03-08T09:42:49;102408.52;;;4.50;74.50
66742;BME280;53654;54.152;19.432;2024-03-08T09:45:17;102407.80;;;4.57;73.89
66742;BME280;53654;54.152;19.432;2024-03-08T09:47:48;102405.55;;;4.65;73.77
66742;BME280;53654;54.152;19.432;2024-03-08T09:50:17;102402.34;;;4.71;73.15
66742;BME280;53654;54.152;19.432;2024-03-08T09:52:47;102397.70;;;4.76;72.60
66742;BME280;53654;54.152;19.432;2024-03-08T09:55:16;102394.20;;;4.79;71.97
66742;BME280;53654;54.152;19.432;2024-03-08T09:57:51;102390.25;;;4.80;71.61
66742;BME280;53654;54.152;19.432;2024-03-08T10:00:40;102387.79;;;4.83;72.03
66742;BME280;53654;54.152;19.432;2024-03-08T10:03:09;102387.74;;;4.86;71.60
66742;BME280;53654;54.152;19.432;2024-03-08T10:05:41;102388.96;;;4.86;71.15
66742;BME280;53654;54.152;19.432;2024-03-08T10:08:12;102391.96;;;4.84;70.81
66742;BME280;53654;54.152;19.432;2024-03-08T10:10:41;102388.31;;;4.83;71.07
66742;BME280;53654;54.152;19.432;2024-03-08T10:13:11;102390.20;;;4.82;71.09
66742;BME280;53654;54.152;19.432;2024-03-08T10:15:41;102387.61;;;4.83;71.02
66742;BME280;53654;54.152;19.432;2024-03-08T10:18:09;102387.55;;;4.85;70.60
66742;BME280;53654;54.152;19.432;2024-03-08T10:20:38;102387.05;;;4.86;70.18
66742;BME280;53654;54.152;19.432;2024-03-08T10:23:07;102383.77;;;4.91;70.15
66742;BME280;53654;54.152;19.432;2024-03-08T10:25:39;102383.64;;;4.96;70.17
66742;BME280;53654;54.152;19.432;2024-03-08T10:28:07;102379.06;;;5.02;70.07
66742;BME280;53654;54.152;19.432;2024-03-08T10:30:35;102377.80;;;5.05;69.70
66742;BME280;53654;54.152;19.432;2024-03-08T10:33:04;102380.24;;;5.10;69.89
66742;BME280;53654;54.152;19.432;2024-03-08T10:35:34;102379.85;;;5.18;70.09
66742;BME280;53654;54.152;19.432;2024-03-08T10:38:05;102375.34;;;5.21;69.79
66742;BME280;53654;54.152;19.432;2024-03-08T10:40:38;102375.70;;;5.21;69.20
66742;BME280;53654;54.152;19.432;2024-03-08T10:43:18;102372.99;;;5.23;69.29
66742;BME280;53654;54.152;19.432;2024-03-08T10:45:47;102369.83;;;5.26;68.88
66742;BME280;53654;54.152;19.432;2024-03-08T10:48:29;102369.95;;;5.29;68.78
66742;BME280;53654;54.152;19.432;2024-03-08T10:51:06;102365.66;;;5.30;68.56
66742;BME280;53654;54.152;19.432;2024-03-08T10:53:39;102367.92;;;5.30;68.29
66742;BME280;53654;54.152;19.432;2024-03-08T10:56:10;102365.73;;;5.27;67.85
66742;BME280;53654;54.152;19.432;2024-03-08T10:58:39;102367.98;;;5.24;67.71
66742;BME280;53654;54.152;19.432;2024-03-08T11:01:07;102364.83;;;5.22;67.51
66742;BME280;53654;54.152;19.432;2024-03-08T11:14:53;102359.73;;;5.24;67.68
66742;BME280;53654;54.152;19.432;2024-03-08T11:20:00;102353.95;;;5.36;67.70
66742;BME280;53654;54.152;19.432;2024-03-08T11:22:32;102347.20;;;5.40;67.43
66742;BME280;53654;54.152;19.432;2024-03-08T11:25:05;102340.83;;;5.46;67.21
66742;BME280;53654;54.152;19.432;2024-03-08T11:27:52;102343.82;;;5.52;67.31
66742;BME280;53654;54.152;19.432;2024-03-08T11:30:22;102348.23;;;5.49;66.63
66742;BME280;53654;54.152;19.432;2024-03-08T11:32:52;102341.19;;;5.46;66.39
66742;BME280;53654;54.152;19.432;2024-03-08T11:35:22;102339.69;;;5.48;66.24
66742;BME280;53654;54.152;19.432;2024-03-08T11:37:53;102338.16;;;5.48;66.04
66742;BME280;53654;54.152;19.432;2024-03-08T11:40:21;102336.56;;;5.47;65.95
66742;BME280;53654;54.152;19.432;2024-03-08T11:42:50;102328.46;;;5.48;65.79
66742;BME280;53654;54.152;19.432;2024-03-08T11:45:23;102333.58;;;5.51;65.94
66742;BME280;53654;54.152;19.432;2024-03-08T11:47:53;102327.02;;;5.52;65.82
66742;BME280;53654;54.152;19.432;2024-03-08T11:50:25;102329.86;;;5.54;65.85
66742;BME280;53654;54.152;19.432;2024-03-08T11:53:00;102326.39;;;5.54;65.34
66742;BME280;53654;54.152;19.432;2024-03-08T11:55:29;102321.27;;;5.51;64.92
66742;BME280;53654;54.152;19.432;2024-03-08T11:58:05;102319.23;;;5.56;65.21
66742;BME280;53654;54.152;19.432;2024-03-08T12:00:35;102314.77;;;5.57;64.63
66742;BME280;53654;54.152;19.432;2024-03-08T12:03:07;102311.13;;;5.57;64.45
66742;BME280;53654;54.152;19.432;2024-03-08T12:05:37;102306.86;;;5.59;64.52
66742;BME280;53654;54.152;19.432;2024-03-08T12:08:07;102298.42;;;5.65;64.49
66742;BME280;53654;54.152;19.432;2024-03-08T12:10:40;102291.29;;;5.69;64.22
66742;BME280;53654;54.152;19.432;2024-03-08T12:13:09;102288.98;;;5.72;63.74
66742;BME280;53654;54.152;19.432;2024-03-08T12:15:41;102295.86;;;5.76;63.58
66742;BME280;53654;54.152;19.432;2024-03-08T12:18:09;102294.14;;;5.80;63.41
66742;BME280;53654;54.152;19.432;2024-03-08T12:20:38;102291.79;;;5.87;63.05
66742;BME280;53654;54.152;19.432;2024-03-08T12:23:13;102289.52;;;5.96;62.67
66742;BME280;53654;54.152;19.432;2024-03-08T12:25:42;102287.73;;;6.04;62.45
66742;BME280;53654;54.152;19.432;2024-03-08T12:28:11;102286.45;;;6.07;61.89
66742;BME280;53654;54.152;19.432;2024-03-08T12:30:51;102282.69;;;6.09;61.37
66742;BME280;53654;54.152;19.432;2024-03-08T12:33:22;102282.88;;;6.09;60.63
66742;BME280;53654;54.152;19.432;2024-03-08T12:35:51;102280.08;;;6.08;60.40
66742;BME280;53654;54.152;19.432;2024-03-08T12:38:27;102276.98;;;6.09;60.37
66742;BME280;53654;54.152;19.432;2024-03-08T12:40:58;102277.63;;;6.07;60.12
66742;BME280;53654;54.152;19.432;2024-03-08T12:43:27;102277.34;;;6.09;60.70
66742;BME280;53654;54.152;19.432;2024-03-08T12:45:59;102271.30;;;6.15;61.18
66742;BME280;53654;54.152;19.432;2024-03-08T12:48:28;102275.51;;;6.17;60.85
66742;BME280;53654;54.152;19.432;2024-03-08T12:50:56;102270.63;;;6.16;60.43
66742;BME280;53654;54.152;19.432;2024-03-08T12:53:24;102261.36;;;6.13;59.77
66742;BME280;53654;54.152;19.432;2024-03-08T12:55:57;102262.88;;;6.18;59.97
66742;BME280;53654;54.152;19.432;2024-03-08T12:58:25;102259.63;;;6.24;60.26
66742;BME280;53654;54.152;19.432;2024-03-08T13:00:56;102258.06;;;6.29;60.61
66742;BME280;53654;54.152;19.432;2024-03-08T13:03:24;102258.70;;;6.32;60.71
66742;BME280;53654;54.152;19.432;2024-03-08T13:05:53;102258.18;;;6.32;60.56
66742;BME280;53654;54.152;19.432;2024-03-08T13:08:21;102261.51;;;6.28;60.11
66742;BME280;53654;54.152;19.432;2024-03-08T13:10:52;102255.25;;;6.23;60.19